createdAt,value
2022-12-25T00:01:13.209Z,4.93
2022-12-25T00:03:40.182Z,5.03
2022-12-25T00:06:07.072Z,5.07
2022-12-25T00:08:34.204Z,4.90
2022-12-25T00:11:06.282Z,5.70
2022-12-25T00:13:33.579Z,6.40
2022-12-25T00:16:00.644Z,6.40
2022-12-25T00:18:27.018Z,4.88
2022-12-25T00:21:02.008Z,5.93
2022-12-25T00:23:28.899Z,5.82
2022-12-25T00:25:56.665Z,5.82
2022-12-25T00:28:24.177Z,4.50
2022-12-25T00:30:51.368Z,4.45
2022-12-25T00:33:19.172Z,4.43
2022-12-25T00:35:56.322Z,5.35
2022-12-25T00:38:22.790Z,4.18
2022-12-25T00:40:49.222Z,5.70
2022-12-25T00:43:15.729Z,4.63
2022-12-25T00:45:42.221Z,4.70
2022-12-25T00:48:09.038Z,4.82
2022-12-25T00:50:38.615Z,4.30
2022-12-25T00:53:05.126Z,4.30
2022-12-25T00:55:31.643Z,4.40
2022-12-25T00:57:58.943Z,4.57
2022-12-25T01:00:25.367Z,3.88
2022-12-25T01:02:51.879Z,4.32
2022-12-25T01:05:18.507Z,4.57
2022-12-25T01:07:44.929Z,4.18
2022-12-25T01:10:23.504Z,4.78
2022-12-25T01:12:51.453Z,4.65
2022-12-25T01:15:18.612Z,5.00
2022-12-25T01:17:45.534Z,4.80
2022-12-25T01:20:14.605Z,4.25
2022-12-25T01:22:41.108Z,4.97
2022-12-25T01:25:09.079Z,4.72
2022-12-25T01:27:35.681Z,3.92
2022-12-25T01:30:02.321Z,4.03
2022-12-25T01:32:28.805Z,4.43
2022-12-25T01:34:56.365Z,3.88
2022-12-25T01:37:24.694Z,4.00
2022-12-25T01:39:51.409Z,4.72
2022-12-25T01:42:20.124Z,4.40
2022-12-25T01:44:46.444Z,4.90
2022-12-25T01:47:15.013Z,4.07
2022-12-25T01:49:45.197Z,4.55
2022-12-25T01:52:18.825Z,4.32
2022-12-25T01:54:57.461Z,3.90
2022-12-25T01:57:28.299Z,4.40
2022-12-25T01:59:57.711Z,3.95
2022-12-25T02:02:25.297Z,4.57
2022-12-25T02:05:14.260Z,4.15
2022-12-25T02:07:42.791Z,4.27
2022-12-25T02:10:11.123Z,4.15
2022-12-25T02:12:38.582Z,3.83
2022-12-25T02:15:11.985Z,3.85
2022-12-25T02:17:53.405Z,3.75
2022-12-25T02:20:25.815Z,4.50
2022-12-25T02:23:03.688Z,3.75
2022-12-25T02:25:53.299Z,4.63
2022-12-25T02:28:45.642Z,3.70
2022-12-25T02:31:17.177Z,4.00
2022-12-25T02:34:03.217Z,4.70
2022-12-25T02:36:41.007Z,4.43
2022-12-25T02:39:55.690Z,4.82
2022-12-25T02:42:52.543Z,4.70
2022-12-25T02:46:06.075Z,4.15
2022-12-25T02:48:55.189Z,3.23
2022-12-25T02:51:44.840Z,4.65
2022-12-25T02:54:33.204Z,3.83
2022-12-25T02:57:21.853Z,4.93
2022-12-25T03:00:09.812Z,5.07
2022-12-25T03:03:15.866Z,4.03
2022-12-25T03:06:02.290Z,4.75
2022-12-25T03:08:34.728Z,4.07
2022-12-25T03:11:27.451Z,5.20
2022-12-25T03:14:18.976Z,4.38
2022-12-25T03:16:53.525Z,4.33
2022-12-25T03:19:43.306Z,5.13
2022-12-25T03:22:42.773Z,4.00
2022-12-25T03:25:28.874Z,4.30
2022-12-25T03:27:57.708Z,4.72
2022-12-25T03:30:50.002Z,4.20
2022-12-25T03:33:44.311Z,4.22
2022-12-25T03:37:05.684Z,3.90
2022-12-25T03:40:01.129Z,3.72
2022-12-25T03:42:42.010Z,4.05
2022-12-25T03:45:38.332Z,4.57
2022-12-25T03:48:12.818Z,4.72
2022-12-25T03:51:08.506Z,4.47
2022-12-25T03:54:03.399Z,3.33
2022-12-25T03:56:50.248Z,3.80
2022-12-25T03:59:39.799Z,5.10
2022-12-25T04:02:25.823Z,3.90
2022-12-25T04:05:10.588Z,4.32
2022-12-25T04:07:55.980Z,5.00
2022-12-25T04:10:40.907Z,3.88
2022-12-25T04:13:26.312Z,4.17
2022-12-25T04:16:12.113Z,3.88
2022-12-25T04:18:57.440Z,3.92
2022-12-25T04:21:43.552Z,3.70
2022-12-25T04:24:29.067Z,4.15
2022-12-25T04:27:14.346Z,4.17
2022-12-25T04:29:59.568Z,4.93
2022-12-25T04:32:44.579Z,3.70
2022-12-25T04:35:30.610Z,3.53
2022-12-25T04:37:57.226Z,3.47
2022-12-25T04:40:23.677Z,3.90
2022-12-25T04:42:51.408Z,3.60
2022-12-25T04:45:18.109Z,3.83
2022-12-25T04:47:44.582Z,3.50
2022-12-25T04:50:11.451Z,4.03
2022-12-25T04:52:40.080Z,3.33
2022-12-25T04:55:08.192Z,4.10
2022-12-25T04:57:35.271Z,3.60
2022-12-25T05:00:01.814Z,3.10
2022-12-25T05:02:28.628Z,3.28
2022-12-25T05:04:55.253Z,2.87
2022-12-25T05:07:22.712Z,2.80
2022-12-25T05:09:49.120Z,3.22
2022-12-25T05:12:15.597Z,3.33
2022-12-25T05:14:42.783Z,3.25
2022-12-25T05:17:09.244Z,3.30
2022-12-25T05:19:35.709Z,2.67
2022-12-25T05:22:02.207Z,3.05
2022-12-25T05:24:28.875Z,3.35
2022-12-25T05:26:55.382Z,3.22
2022-12-25T05:29:22.013Z,3.10
2022-12-25T05:31:48.556Z,3.10
2022-12-25T05:34:15.639Z,2.83
2022-12-25T05:36:42.075Z,2.67
2022-12-25T05:39:09.071Z,3.13
2022-12-25T05:41:35.551Z,2.87
2022-12-25T05:44:02.075Z,2.95
2022-12-25T05:46:28.540Z,2.45
2022-12-25T05:48:54.953Z,3.25
2022-12-25T05:51:21.537Z,3.20
2022-12-25T05:53:48.107Z,2.77
2022-12-25T05:56:14.603Z,3.15
2022-12-25T05:58:41.494Z,2.13
2022-12-25T06:01:18.629Z,2.20
2022-12-25T06:03:45.256Z,2.80
2022-12-25T06:06:12.321Z,3.03
2022-12-25T06:08:39.045Z,2.47
2022-12-25T06:11:07.186Z,3.08
2022-12-25T06:13:35.059Z,2.33
2022-12-25T06:16:10.238Z,3.25
2022-12-25T06:18:38.927Z,1.83
2022-12-25T06:21:09.877Z,2.45
2022-12-25T06:23:37.813Z,1.98
2022-12-25T06:26:10.452Z,2.35
2022-12-25T06:28:37.877Z,2.20
2022-12-25T06:31:09.119Z,2.03
2022-12-25T06:33:36.663Z,2.40
2022-12-25T06:36:07.412Z,2.03
2022-12-25T06:38:33.907Z,2.40
2022-12-25T06:41:10.634Z,2.10
2022-12-25T06:43:37.819Z,1.60
2022-12-25T06:46:09.944Z,2.45
2022-12-25T06:48:37.247Z,2.67
2022-12-25T06:51:04.767Z,1.80
2022-12-25T06:53:40.369Z,2.45
2022-12-25T06:56:15.623Z,1.50
2022-12-25T06:58:47.704Z,1.92
2022-12-25T07:01:23.959Z,2.47
2022-12-25T07:03:54.579Z,1.88
2022-12-25T07:06:20.994Z,2.13
2022-12-25T07:08:51.379Z,1.63
2022-12-25T07:11:18.888Z,1.90
2022-12-25T07:13:49.783Z,1.40
2022-12-25T07:16:16.518Z,1.60
2022-12-25T07:18:43.437Z,1.70
2022-12-25T07:21:29.239Z,1.53
2022-12-25T07:23:55.924Z,1.92
2022-12-25T07:26:22.477Z,2.20
2022-12-25T07:28:49.079Z,2.13
2022-12-25T07:31:17.598Z,1.92
2022-12-25T07:33:45.056Z,1.40
2022-12-25T07:36:12.797Z,1.98
2022-12-25T07:38:40.538Z,2.00
2022-12-25T07:41:13.238Z,1.83
2022-12-25T07:52:39.490Z,1.52
2022-12-25T07:55:10.378Z,1.75
2022-12-25T07:57:36.927Z,1.75
2022-12-25T08:00:05.550Z,1.40
2022-12-25T08:02:32.451Z,1.50
2022-12-25T08:05:00.182Z,1.33
2022-12-25T08:07:27.259Z,1.35
2022-12-25T08:09:53.726Z,1.58
2022-12-25T08:12:20.175Z,1.70
2022-12-25T08:14:46.670Z,1.70
2022-12-25T08:17:13.200Z,1.42
2022-12-25T08:19:39.801Z,1.58
2022-12-25T08:22:06.359Z,2.42
2022-12-25T08:24:33.301Z,1.27
2022-12-25T08:26:59.803Z,1.27
2022-12-25T08:29:28.841Z,1.48
2022-12-25T08:31:55.801Z,1.75
2022-12-25T08:34:23.481Z,1.40
2022-12-25T08:36:49.981Z,0.90
2022-12-25T08:39:16.688Z,1.30
2022-12-25T08:41:43.262Z,1.70
2022-12-25T08:44:12.174Z,1.40
2022-12-25T08:46:46.259Z,1.65
2022-12-25T08:49:12.907Z,1.90
2022-12-25T08:51:40.279Z,1.88
2022-12-25T08:54:07.188Z,1.13
2022-12-25T08:56:33.725Z,1.80
2022-12-25T08:59:00.568Z,1.48
2022-12-25T09:01:27.733Z,1.23
2022-12-25T09:03:55.174Z,1.23
2022-12-25T09:06:21.830Z,1.10
2022-12-25T09:08:49.868Z,1.67
2022-12-25T09:11:18.646Z,1.27
2022-12-25T09:13:47.270Z,1.20
2022-12-25T09:16:17.424Z,1.73
2022-12-25T09:18:55.832Z,1.00
2022-12-25T09:21:26.698Z,1.45
2022-12-25T09:23:53.099Z,0.90
2022-12-25T09:26:20.315Z,1.35
2022-12-25T09:28:51.861Z,1.52
2022-12-25T09:31:20.187Z,1.40
2022-12-25T09:33:46.717Z,1.42
2022-12-25T09:36:13.312Z,1.17
2022-12-25T09:38:40.155Z,1.60
2022-12-25T09:41:33.259Z,1.15
2022-12-25T09:44:08.084Z,1.38
2022-12-25T09:46:50.088Z,1.10
2022-12-25T09:49:55.700Z,1.30
2022-12-25T09:52:30.534Z,1.43
2022-12-25T09:55:13.397Z,1.38
2022-12-25T09:57:42.974Z,1.77
2022-12-25T10:00:19.627Z,1.30
2022-12-25T10:03:11.428Z,1.80
2022-12-25T10:05:37.919Z,2.00
2022-12-25T10:08:28.729Z,1.60
2022-12-25T10:11:04.209Z,1.70
2022-12-25T10:13:33.682Z,2.08
2022-12-25T10:16:22.057Z,1.98
2022-12-25T10:19:34.664Z,1.88
2022-12-25T10:22:09.069Z,1.42
2022-12-25T10:24:48.817Z,2.33
2022-12-25T10:27:40.721Z,2.50
2022-12-25T10:30:19.672Z,2.60
2022-12-25T10:36:20.517Z,2.00
2022-12-25T10:38:47.930Z,1.83
2022-12-25T10:41:36.336Z,1.85
2022-12-25T10:44:15.002Z,1.83
2022-12-25T10:46:47.419Z,1.90
2022-12-25T10:49:16.794Z,1.70
2022-12-25T10:51:43.523Z,2.00
2022-12-25T10:54:31.391Z,2.10
2022-12-25T10:57:02.151Z,1.80
2022-12-25T11:00:04.055Z,1.45
2022-12-25T11:06:03.065Z,1.90
2022-12-25T11:08:33.167Z,1.40
2022-12-25T11:11:12.232Z,1.77
2022-12-25T11:16:49.135Z,1.40
2022-12-25T11:19:35.911Z,1.60
2022-12-25T11:22:03.858Z,1.75
2022-12-25T11:24:33.187Z,1.92
2022-12-25T11:27:02.352Z,2.03
2022-12-25T11:29:43.963Z,1.60
2022-12-25T11:32:22.502Z,2.10
2022-12-25T11:34:51.171Z,1.73
2022-12-25T11:37:27.483Z,3.47
2022-12-25T11:39:55.341Z,4.60
2022-12-25T11:42:37.572Z,4.15
2022-12-25T11:45:15.482Z,4.60
2022-12-25T11:48:07.241Z,4.03
2022-12-25T11:50:42.783Z,3.53
2022-12-25T11:53:21.439Z,2.90
2022-12-25T11:55:55.777Z,3.05
2022-12-25T11:58:40.912Z,3.03
2022-12-25T12:01:29.804Z,2.20
2022-12-25T12:03:59.505Z,2.13
2022-12-25T12:06:26.866Z,2.27
2022-12-25T12:09:01.467Z,2.15
2022-12-25T12:11:38.931Z,2.25
2022-12-25T12:14:43.043Z,1.95
2022-12-25T12:17:14.641Z,1.98
2022-12-25T12:19:41.248Z,1.92
2022-12-25T12:22:39.666Z,2.72
2022-12-25T12:25:07.941Z,1.95
2022-12-25T12:27:40.755Z,1.98
2022-12-25T12:30:24.119Z,2.58
2022-12-25T12:32:56.073Z,2.55
2022-12-25T12:35:30.527Z,2.47
2022-12-25T12:38:24.551Z,4.22
2022-12-25T12:40:55.356Z,4.68
2022-12-25T12:43:58.898Z,3.33
2022-12-25T12:46:31.290Z,2.85
2022-12-25T12:49:21.706Z,3.30
2022-12-25T12:51:49.411Z,2.88
2022-12-25T12:54:20.912Z,3.42
2022-12-25T12:57:21.266Z,2.78
2022-12-25T12:59:48.023Z,3.03
2022-12-25T13:02:55.598Z,3.13
2022-12-25T13:05:34.720Z,3.30
2022-12-25T13:08:10.513Z,3.20
2022-12-25T13:10:46.615Z,3.40
2022-12-25T13:13:23.109Z,3.63
2022-12-25T13:15:56.049Z,2.90
2022-12-25T13:18:25.825Z,3.15
2022-12-25T13:21:05.662Z,3.25
2022-12-25T13:23:34.788Z,3.25
2022-12-25T13:26:17.482Z,3.70
2022-12-25T13:28:47.085Z,3.20
2022-12-25T13:31:13.746Z,3.17
2022-12-25T13:33:51.925Z,3.50
2022-12-25T13:36:19.114Z,3.45
2022-12-25T13:38:52.360Z,2.90
2022-12-25T13:41:39.895Z,3.53
2022-12-25T13:44:22.451Z,3.30
2022-12-25T13:46:48.970Z,3.20
2022-12-25T13:49:17.252Z,3.50
2022-12-25T13:51:44.556Z,3.23
2022-12-25T13:54:13.642Z,3.20
2022-12-25T13:56:53.831Z,3.00
2022-12-25T13:59:23.762Z,2.72
2022-12-25T14:01:52.112Z,3.38
2022-12-25T14:04:28.121Z,3.93
2022-12-25T14:06:54.606Z,3.72
2022-12-25T14:09:22.094Z,3.53
2022-12-25T14:11:55.257Z,3.70
2022-12-25T14:14:26.372Z,3.47
2022-12-25T14:16:57.778Z,3.33
2022-12-25T14:19:33.007Z,2.83
2022-12-25T14:22:11.047Z,3.40
2022-12-25T14:24:39.652Z,3.47
2022-12-25T14:27:16.986Z,3.50
2022-12-25T14:29:45.633Z,3.67
2022-12-25T14:32:18.849Z,3.53
2022-12-25T14:34:47.301Z,3.60
2022-12-25T14:37:18.370Z,3.78
2022-12-25T14:39:47.594Z,3.80
2022-12-25T14:42:21.866Z,3.40
2022-12-25T14:45:26.557Z,3.65
2022-12-25T14:47:59.780Z,4.22
2022-12-25T14:50:38.628Z,4.93
2022-12-25T14:53:16.749Z,4.55
2022-12-25T14:55:48.328Z,4.73
2022-12-25T14:58:25.323Z,4.90
2022-12-25T15:01:01.581Z,4.90
2022-12-25T15:03:35.578Z,4.28
2022-12-25T15:06:32.226Z,4.40
2022-12-25T15:09:12.783Z,4.60
2022-12-25T15:11:39.207Z,4.28
2022-12-25T15:14:05.872Z,4.65
2022-12-25T15:16:41.808Z,4.18
2022-12-25T15:19:10.401Z,3.83
2022-12-25T15:21:37.530Z,4.15
2022-12-25T15:24:04.559Z,4.57
2022-12-25T15:26:32.261Z,6.32
2022-12-25T15:28:58.883Z,5.55
2022-12-25T15:31:30.851Z,4.72
2022-12-25T15:34:00.518Z,4.87
2022-12-25T15:36:27.569Z,4.70
2022-12-25T15:38:54.951Z,3.95
2022-12-25T15:41:53.481Z,3.97
2022-12-25T15:44:20.335Z,4.55
2022-12-25T15:46:46.953Z,3.80
2022-12-25T15:49:14.603Z,3.90
2022-12-25T15:51:41.872Z,4.10
2022-12-25T15:54:08.599Z,11.52
2022-12-25T15:57:05.375Z,6.28
2022-12-25T15:59:32.301Z,4.63
2022-12-25T16:02:01.069Z,5.28
2022-12-25T16:04:31.269Z,7.63
2022-12-25T16:07:02.499Z,8.88
2022-12-25T16:09:28.934Z,12.35
2022-12-25T16:11:55.308Z,9.13
2022-12-25T16:14:21.949Z,7.57
2022-12-25T16:16:48.432Z,6.82
2022-12-25T16:19:15.107Z,6.53
2022-12-25T16:21:44.676Z,5.45
2022-12-25T16:24:11.344Z,5.53
2022-12-25T16:26:37.783Z,5.15
2022-12-25T16:29:07.174Z,6.60
2022-12-25T16:31:34.862Z,6.28
2022-12-25T16:34:01.583Z,5.85
2022-12-25T16:36:28.084Z,5.23
2022-12-25T16:38:54.506Z,5.85
2022-12-25T16:41:21.817Z,4.32
2022-12-25T16:43:48.293Z,5.80
2022-12-25T16:46:18.097Z,8.95
2022-12-25T16:48:45.304Z,14.23
2022-12-25T16:51:16.982Z,15.43
2022-12-25T16:53:43.483Z,13.77
2022-12-25T16:56:12.435Z,10.82
2022-12-25T16:58:38.823Z,8.93
2022-12-25T17:01:10.852Z,9.32
2022-12-25T17:03:38.232Z,9.68
2022-12-25T17:06:12.211Z,11.27
2022-12-25T17:08:38.637Z,8.30
2022-12-25T17:11:05.945Z,6.15
2022-12-25T17:13:32.328Z,5.97
2022-12-25T17:15:59.031Z,26.45
2022-12-25T17:18:25.649Z,28.80
2022-12-25T17:20:53.481Z,27.77
2022-12-25T17:23:20.721Z,29.65
2022-12-25T17:25:47.149Z,13.17
2022-12-25T17:28:13.817Z,9.52
2022-12-25T17:30:40.236Z,8.43
2022-12-25T17:33:06.607Z,7.07
2022-12-25T17:35:36.131Z,7.07
2022-12-25T17:38:02.634Z,8.30
2022-12-25T17:40:29.811Z,8.30
2022-12-25T17:42:56.301Z,8.48
2022-12-25T17:45:22.700Z,7.88
2022-12-25T17:47:49.175Z,6.30
2022-12-25T17:50:15.717Z,8.73
2022-12-25T17:52:42.342Z,17.13
2022-12-25T17:55:09.218Z,17.08
2022-12-25T17:57:35.621Z,15.25
2022-12-25T18:00:02.051Z,12.63
2022-12-25T18:02:29.870Z,10.47
2022-12-25T18:04:56.963Z,8.82
2022-12-25T18:07:23.478Z,10.38
2022-12-25T18:09:49.880Z,9.80
2022-12-25T18:12:16.259Z,9.57
2022-12-25T18:14:42.772Z,8.70
2022-12-25T18:17:09.442Z,7.28
2022-12-25T18:19:35.841Z,7.95
2022-12-25T18:22:02.233Z,7.03
2022-12-25T18:24:28.604Z,6.90
2022-12-25T18:26:55.016Z,6.10
2022-12-25T18:29:21.421Z,6.30
2022-12-25T18:31:47.964Z,7.22
2022-12-25T18:34:14.675Z,7.65
2022-12-25T18:36:41.246Z,9.57
2022-12-25T18:39:07.994Z,8.37
2022-12-25T18:41:54.394Z,8.48
2022-12-25T18:44:20.809Z,9.18
2022-12-25T18:46:47.227Z,9.02
2022-12-25T18:49:13.659Z,7.28
2022-12-25T18:51:41.056Z,8.03
2022-12-25T18:54:07.480Z,8.65
2022-12-25T18:56:33.914Z,9.27
2022-12-25T18:59:00.719Z,8.52
2022-12-25T19:01:27.219Z,8.50
2022-12-25T19:04:00.086Z,7.73
2022-12-25T19:06:33.134Z,8.60
2022-12-25T19:08:59.599Z,8.30
2022-12-25T19:11:26.059Z,9.07
2022-12-25T19:13:52.482Z,9.07
2022-12-25T19:16:18.954Z,10.17
2022-12-25T19:18:45.547Z,9.95
2022-12-25T19:21:12.243Z,10.98
2022-12-25T19:23:39.135Z,9.88
2022-12-25T19:26:07.447Z,11.40
2022-12-25T19:28:34.912Z,12.30
2022-12-25T19:31:01.617Z,14.38
2022-12-25T19:33:28.262Z,13.38
2022-12-25T19:35:59.646Z,14.40
2022-12-25T19:38:26.153Z,12.70
2022-12-25T19:41:01.804Z,12.67
2022-12-25T19:43:34.433Z,13.15
2022-12-25T19:46:01.843Z,11.40
2022-12-25T19:48:28.819Z,11.43
2022-12-25T19:50:55.286Z,10.27
2022-12-25T19:53:23.693Z,11.83
2022-12-25T19:55:52.613Z,13.63
2022-12-25T19:58:20.244Z,12.80
2022-12-25T20:00:59.984Z,12.68
2022-12-25T20:03:26.873Z,12.18
2022-12-25T20:05:53.392Z,11.40
2022-12-25T20:08:19.998Z,12.30
2022-12-25T20:10:46.853Z,10.48
2022-12-25T20:13:13.297Z,9.75
2022-12-25T20:15:39.802Z,9.15
2022-12-25T20:18:06.281Z,9.13
2022-12-25T20:20:33.027Z,9.00
2022-12-25T20:22:59.598Z,7.63
2022-12-25T20:25:26.019Z,8.63
2022-12-25T20:27:52.454Z,7.78
2022-12-25T20:30:18.924Z,14.20
2022-12-25T20:32:50.408Z,10.77
2022-12-25T20:35:17.441Z,7.97
2022-12-25T20:37:44.075Z,7.72
2022-12-25T20:40:11.589Z,8.30
2022-12-25T20:42:38.083Z,7.87
2022-12-25T20:45:06.667Z,7.88
2022-12-25T20:47:34.283Z,8.73
2022-12-25T20:50:01.046Z,8.68
2022-12-25T20:52:27.587Z,9.07
2022-12-25T20:54:53.946Z,9.30
2022-12-25T20:57:20.335Z,8.52
2022-12-25T20:59:46.793Z,8.30
2022-12-25T21:02:35.634Z,8.40
2022-12-25T21:04:59.867Z,8.38
2022-12-25T21:07:26.241Z,8.13
2022-12-25T21:09:52.632Z,7.75
2022-12-25T21:12:19.034Z,8.73
2022-12-25T21:14:45.404Z,8.13
2022-12-25T21:17:11.849Z,8.00
2022-12-25T21:19:38.246Z,7.90
2022-12-25T21:22:04.694Z,8.52
2022-12-25T21:24:31.117Z,7.95
2022-12-25T21:26:57.521Z,7.18
2022-12-25T21:29:25.031Z,6.38
2022-12-25T21:32:12.281Z,7.87
2022-12-25T21:34:38.952Z,7.53
2022-12-25T21:37:05.795Z,8.60
2022-12-25T21:39:32.186Z,8.48
2022-12-25T21:41:59.443Z,8.13
2022-12-25T21:44:26.128Z,7.47
2022-12-25T21:46:52.573Z,7.47
2022-12-25T21:49:38.980Z,9.23
2022-12-25T21:52:08.261Z,8.90
2022-12-25T21:54:35.256Z,7.82
2022-12-25T21:57:01.748Z,8.30
2022-12-25T21:59:28.249Z,8.88
2022-12-25T22:01:54.794Z,7.80
2022-12-25T22:04:22.683Z,8.65
2022-12-25T22:07:07.774Z,8.75
2022-12-25T22:09:34.363Z,8.13
2022-12-25T22:12:20.350Z,8.35
2022-12-25T22:15:02.569Z,7.72
2022-12-25T22:17:50.632Z,7.05
2022-12-25T22:20:34.429Z,6.82
2022-12-25T22:23:01.108Z,7.53
2022-12-25T22:25:27.639Z,7.93
2022-12-25T22:27:54.348Z,6.38
2022-12-25T22:30:31.855Z,7.60
2022-12-25T22:32:58.366Z,5.75
2022-12-25T22:35:24.937Z,6.00
2022-12-25T22:37:51.437Z,6.00
2022-12-25T22:40:19.774Z,5.75
2022-12-25T22:42:46.717Z,5.50
2022-12-25T22:45:13.270Z,6.28
2022-12-25T22:47:39.775Z,5.60
2022-12-25T22:50:07.153Z,6.60
2022-12-25T22:52:33.599Z,8.20
2022-12-25T22:55:00.039Z,6.35
2022-12-25T22:57:26.586Z,7.15
2022-12-25T22:59:53.119Z,11.60
2022-12-25T23:02:20.458Z,5.38
2022-12-25T23:04:47.095Z,5.50
2022-12-25T23:07:14.571Z,5.38
2022-12-25T23:09:42.011Z,5.93
2022-12-25T23:12:28.957Z,5.67
2022-12-25T23:14:56.738Z,5.20
2022-12-25T23:17:41.603Z,5.40
2022-12-25T23:20:43.009Z,5.25
2022-12-25T23:23:33.906Z,6.63
2022-12-25T23:26:09.601Z,4.87
2022-12-25T23:29:00.696Z,5.18
2022-12-25T23:31:33.995Z,5.30
2022-12-25T23:34:00.783Z,4.85
2022-12-25T23:36:27.531Z,5.22
2022-12-25T23:38:55.201Z,4.60
2022-12-25T23:41:21.607Z,5.22
2022-12-25T23:43:48.087Z,5.05
2022-12-25T23:46:15.105Z,5.32
2022-12-25T23:48:41.805Z,5.22
2022-12-25T23:51:12.914Z,4.47
2022-12-25T23:53:39.893Z,5.50
2022-12-25T23:56:06.814Z,5.38
2022-12-25T23:58:33.330Z,5.43
